createdAt,value
2023-05-23T00:02:15.475Z,96499.69
2023-05-23T00:04:44.282Z,96505.00
2023-05-23T00:07:12.389Z,96480.19
2023-05-23T00:09:39.975Z,96499.28
2023-05-23T00:12:08.054Z,96497.22
2023-05-23T00:14:35.781Z,96495.41
2023-05-23T00:17:03.446Z,96505.81
2023-05-23T00:19:36.452Z,96496.03
2023-05-23T00:22:04.376Z,96503.91
2023-05-23T00:24:31.974Z,96507.41
2023-05-23T00:26:59.531Z,96507.34
2023-05-23T00:29:27.060Z,96507.78
2023-05-23T00:31:54.627Z,96504.34
2023-05-23T00:34:22.226Z,96507.66
2023-05-23T00:36:51.202Z,96517.91
2023-05-23T00:39:20.973Z,96500.59
2023-05-23T00:41:52.301Z,96520.56
2023-05-23T00:44:21.517Z,96520.41
2023-05-23T00:46:52.844Z,96519.84
2023-05-23T00:49:21.074Z,96524.56
2023-05-23T00:51:49.628Z,96523.75
2023-05-23T00:54:19.888Z,96504.00
2023-05-23T00:56:48.726Z,96520.09
2023-05-23T00:59:17.076Z,96522.19
2023-05-23T01:01:47.286Z,96525.41
2023-05-23T01:04:16.706Z,96531.00
2023-05-23T01:06:47.074Z,96530.59
2023-05-23T01:09:15.460Z,96544.97
2023-05-23T01:11:49.569Z,96543.09
2023-05-23T01:14:21.884Z,96538.19
2023-05-23T01:16:53.816Z,96545.94
2023-05-23T01:19:42.098Z,96559.03
2023-05-23T01:22:13.910Z,96548.84
2023-05-23T01:24:49.850Z,96554.41
2023-05-23T01:27:24.976Z,96561.53
2023-05-23T01:29:57.543Z,96559.53
2023-05-23T01:32:26.421Z,96573.59
2023-05-23T01:34:54.722Z,96574.22
2023-05-23T01:37:22.253Z,96570.38
2023-05-23T01:39:50.027Z,96570.19
2023-05-23T01:42:17.772Z,96564.66
2023-05-23T01:44:46.619Z,96556.28
2023-05-23T01:47:16.472Z,96557.69
2023-05-23T01:49:45.181Z,96551.16
2023-05-23T01:52:13.327Z,96560.56
2023-05-23T01:54:42.557Z,96556.50
2023-05-23T01:57:10.799Z,96563.50
2023-05-23T01:59:39.214Z,96564.69
2023-05-23T02:02:07.405Z,96553.88
2023-05-23T02:04:36.411Z,96552.69
2023-05-23T02:07:03.961Z,96565.13
2023-05-23T02:09:31.488Z,96566.13
2023-05-23T02:11:59.638Z,96554.72
2023-05-23T02:14:28.428Z,96567.78
2023-05-23T02:16:56.068Z,96564.88
2023-05-23T02:19:23.803Z,96564.25
2023-05-23T02:21:52.723Z,96563.16
2023-05-23T02:24:20.831Z,96566.63
2023-05-23T02:26:48.374Z,96565.53
2023-05-23T02:29:16.519Z,96571.19
2023-05-23T02:31:44.262Z,96566.88
2023-05-23T02:34:11.895Z,96570.72
2023-05-23T02:36:39.431Z,96564.91
2023-05-23T02:39:08.331Z,96558.94
2023-05-23T02:41:37.150Z,96573.63
2023-05-23T02:44:04.766Z,96568.09
2023-05-23T02:46:32.400Z,96570.94
2023-05-23T02:48:59.982Z,96559.34
2023-05-23T02:51:27.559Z,96568.34
2023-05-23T02:53:55.132Z,96580.84
2023-05-23T02:56:24.081Z,96563.94
2023-05-23T02:58:52.593Z,96556.72
2023-05-23T03:01:20.218Z,96558.75
2023-05-23T03:03:47.882Z,96562.34
2023-05-23T03:06:16.951Z,96549.66
2023-05-23T03:08:44.743Z,96530.72
2023-05-23T03:11:12.433Z,96556.41
2023-05-23T03:13:41.510Z,96546.75
2023-05-23T03:16:09.340Z,96544.28
2023-05-23T03:18:37.192Z,96538.72
2023-05-23T03:21:05.277Z,96545.16
2023-05-23T03:23:32.976Z,96541.03
2023-05-23T03:26:00.854Z,96543.94
2023-05-23T03:28:28.530Z,96546.41
2023-05-23T03:30:58.018Z,96538.13
2023-05-23T03:33:25.853Z,96545.69
2023-05-23T03:35:53.632Z,96545.25
2023-05-23T03:38:21.853Z,96544.28
2023-05-23T03:40:49.514Z,96551.78
2023-05-23T03:43:17.455Z,96552.75
2023-05-23T03:45:45.309Z,96559.25
2023-05-23T03:48:14.521Z,96562.28
2023-05-23T03:50:42.198Z,96558.16
2023-05-23T03:53:09.916Z,96563.88
2023-05-23T03:55:37.666Z,96560.53
2023-05-23T03:58:05.606Z,96561.50
2023-05-23T04:00:33.433Z,96563.47
2023-05-23T04:03:01.213Z,96537.16
2023-05-23T04:05:30.286Z,96559.06
2023-05-23T04:08:01.372Z,96566.75
2023-05-23T04:10:29.169Z,96557.72
2023-05-23T04:12:56.939Z,96563.88
2023-05-23T04:15:24.977Z,96572.69
2023-05-23T04:17:53.092Z,96575.28
2023-05-23T04:20:21.133Z,96584.31
2023-05-23T04:22:50.060Z,96579.72
2023-05-23T04:25:18.656Z,96583.75
2023-05-23T04:27:47.330Z,96583.38
2023-05-23T04:30:17.818Z,96586.16
2023-05-23T04:32:46.128Z,96581.28
2023-05-23T04:35:14.596Z,96591.38
2023-05-23T04:37:42.534Z,96589.75
2023-05-23T04:40:13.513Z,96593.38
2023-05-23T04:42:42.378Z,96601.47
2023-05-23T04:45:11.414Z,96591.75
2023-05-23T04:47:39.078Z,96600.03
2023-05-23T04:50:07.581Z,96605.28
2023-05-23T04:52:35.191Z,96595.69
2023-05-23T04:55:03.079Z,96595.72
2023-05-23T04:57:32.281Z,96601.25
2023-05-23T05:00:01.039Z,96594.75
2023-05-23T05:02:28.691Z,96594.31
2023-05-23T05:04:56.301Z,96598.59
2023-05-23T05:07:23.925Z,96594.91
2023-05-23T05:09:51.510Z,96593.00
2023-05-23T05:12:19.057Z,96592.53
2023-05-23T05:14:47.959Z,96593.84
2023-05-23T05:17:15.522Z,96596.81
2023-05-23T05:19:43.105Z,96607.94
2023-05-23T05:22:10.697Z,96605.81
2023-05-23T05:24:40.320Z,96608.59
2023-05-23T05:27:09.456Z,96603.25
2023-05-23T05:29:37.197Z,96607.66
2023-05-23T05:32:08.989Z,96601.88
2023-05-23T05:34:37.802Z,96612.53
2023-05-23T05:37:06.123Z,96618.81
2023-05-23T05:39:33.714Z,96590.31
2023-05-23T05:42:03.628Z,96610.53
2023-05-23T05:44:31.306Z,96620.38
2023-05-23T05:46:58.874Z,96623.34
2023-05-23T05:49:28.257Z,96620.72
2023-05-23T05:51:55.859Z,96616.84
2023-05-23T05:54:23.739Z,96619.78
2023-05-23T05:56:51.267Z,96617.50
2023-05-23T05:59:18.845Z,96607.03
2023-05-23T06:01:46.467Z,96617.81
2023-05-23T06:04:14.518Z,96622.69
2023-05-23T06:06:43.704Z,96618.97
2023-05-23T06:09:11.458Z,96630.72
2023-05-23T06:11:41.156Z,96628.38
2023-05-23T06:14:09.498Z,96638.13
2023-05-23T06:16:37.571Z,96637.47
2023-05-23T06:19:05.200Z,96634.47
2023-05-23T06:21:33.156Z,96640.72
2023-05-23T06:24:02.046Z,96635.06
2023-05-23T06:26:29.653Z,96637.53
2023-05-23T06:28:57.250Z,96638.38
2023-05-23T06:31:24.854Z,96650.22
2023-05-23T06:33:52.447Z,96647.72
2023-05-23T06:36:20.075Z,96646.81
2023-05-23T06:38:48.640Z,96638.56
2023-05-23T06:41:17.549Z,96630.47
2023-05-23T06:43:45.151Z,96635.22
2023-05-23T06:46:12.797Z,96613.97
2023-05-23T06:48:40.424Z,96636.66
2023-05-23T06:51:08.120Z,96637.00
2023-05-23T06:53:35.758Z,96638.94
2023-05-23T06:56:03.387Z,96633.56
2023-05-23T06:58:32.293Z,96639.16
2023-05-23T07:00:59.923Z,96636.97
2023-05-23T07:03:27.598Z,96639.16
2023-05-23T07:05:55.211Z,96640.53
2023-05-23T07:08:22.813Z,96637.72
2023-05-23T07:10:50.490Z,96641.47
2023-05-23T07:13:18.130Z,96621.63
2023-05-23T07:15:47.012Z,96652.09
2023-05-23T07:18:14.661Z,96655.66
2023-05-23T07:20:42.474Z,96655.41
2023-05-23T07:23:10.435Z,96651.53
2023-05-23T07:25:42.223Z,96651.72
2023-05-23T07:28:14.825Z,96656.47
2023-05-23T07:30:43.106Z,96654.34
2023-05-23T07:33:12.117Z,96653.91
2023-05-23T07:35:39.673Z,96654.81
2023-05-23T07:38:07.393Z,96661.63
2023-05-23T07:40:35.074Z,96651.69
2023-05-23T07:43:02.644Z,96656.22
2023-05-23T07:45:30.167Z,96661.38
2023-05-23T07:47:57.824Z,96662.78
2023-05-23T07:50:27.757Z,96660.00
2023-05-23T07:52:55.883Z,96657.75
2023-05-23T07:55:24.347Z,96660.72
2023-05-23T07:57:52.556Z,96659.31
2023-05-23T08:00:20.687Z,96668.13
2023-05-23T08:02:48.291Z,96671.81
2023-05-23T08:05:16.213Z,96670.47
2023-05-23T08:07:45.423Z,96678.03
2023-05-23T08:10:13.019Z,96672.09
2023-05-23T08:12:40.575Z,96666.63
2023-05-23T08:15:09.360Z,96670.34
2023-05-23T08:17:37.670Z,96685.09
2023-05-23T08:20:06.060Z,96688.09
2023-05-23T08:22:33.670Z,96689.72
2023-05-23T08:25:03.169Z,96691.38
2023-05-23T08:27:31.361Z,96682.75
2023-05-23T08:29:59.677Z,96693.91
2023-05-23T08:32:27.419Z,96692.88
2023-05-23T08:34:55.002Z,96685.56
2023-05-23T08:37:22.589Z,96693.72
2023-05-23T08:39:50.242Z,96693.75
2023-05-23T08:42:19.236Z,96689.09
2023-05-23T08:44:47.314Z,96700.63
2023-05-23T08:47:17.429Z,96701.22
2023-05-23T08:49:45.250Z,96696.84
2023-05-23T08:52:13.772Z,96706.50
2023-05-23T08:54:50.902Z,96700.91
2023-05-23T08:57:19.849Z,96702.03
2023-05-23T08:59:48.135Z,96683.63
2023-05-23T09:02:16.054Z,96703.25
2023-05-23T09:04:43.646Z,96708.38
2023-05-23T09:07:12.810Z,96714.81
2023-05-23T09:09:40.389Z,96718.63
2023-05-23T09:12:08.082Z,96722.81
2023-05-23T09:14:37.352Z,96721.66
2023-05-23T09:17:05.134Z,96720.06
2023-05-23T09:19:33.403Z,96722.06
2023-05-23T09:22:03.408Z,96726.16
2023-05-23T09:24:35.887Z,96723.56
2023-05-23T09:27:03.711Z,96719.81
2023-05-23T09:29:31.773Z,96729.25
2023-05-23T09:32:11.770Z,96721.84
2023-05-23T09:34:42.026Z,96730.38
2023-05-23T09:37:09.727Z,96720.88
2023-05-23T09:39:38.792Z,96721.16
2023-05-23T09:42:07.188Z,96725.81
2023-05-23T09:44:42.472Z,96724.31
2023-05-23T09:47:11.418Z,96723.31
2023-05-23T09:49:40.446Z,96729.22
2023-05-23T09:52:08.091Z,96730.53
2023-05-23T09:54:35.744Z,96729.25
2023-05-23T09:57:05.842Z,96726.03
2023-05-23T09:59:35.980Z,96728.00
2023-05-23T10:02:04.562Z,96726.16
2023-05-23T10:04:35.761Z,96709.22
2023-05-23T10:07:07.134Z,96733.28
2023-05-23T10:09:37.651Z,96736.16
2023-05-23T10:12:41.611Z,96729.44
2023-05-23T10:15:11.063Z,96738.97
2023-05-23T10:17:48.032Z,96734.09
2023-05-23T10:20:17.749Z,96743.25
2023-05-23T10:22:45.779Z,96728.97
2023-05-23T10:25:13.619Z,96730.59
2023-05-23T10:27:41.487Z,96738.69
2023-05-23T10:30:10.547Z,96736.41
2023-05-23T10:32:40.397Z,96738.88
2023-05-23T10:35:13.773Z,96735.34
2023-05-23T10:37:49.598Z,96728.19
2023-05-23T10:40:22.906Z,96728.63
2023-05-23T10:42:54.162Z,96723.72
2023-05-23T10:45:23.320Z,96734.22
2023-05-23T10:47:52.426Z,96729.06
2023-05-23T10:50:33.121Z,96723.78
2023-05-23T10:53:03.306Z,96732.63
2023-05-23T10:55:33.562Z,96723.63
2023-05-23T10:58:11.165Z,96734.63
2023-05-23T11:00:39.158Z,96727.38
2023-05-23T11:03:09.060Z,96730.31
2023-05-23T11:05:38.708Z,96720.63
2023-05-23T11:08:13.928Z,96739.75
2023-05-23T11:10:57.434Z,96740.25
2023-05-23T11:13:25.309Z,96733.75
2023-05-23T11:15:53.239Z,96727.34
2023-05-23T11:18:22.102Z,96729.16
2023-05-23T11:20:54.104Z,96706.31
2023-05-23T11:23:23.932Z,96728.19
2023-05-23T11:25:52.396Z,96716.84
2023-05-23T11:28:20.570Z,96711.16
2023-05-23T11:30:49.281Z,96712.25
2023-05-23T11:33:18.388Z,96709.78
2023-05-23T11:35:47.063Z,96707.59
2023-05-23T11:38:15.362Z,96709.66
2023-05-23T11:40:45.527Z,96720.84
2023-05-23T11:43:15.090Z,96707.66
2023-05-23T11:45:42.761Z,96712.75
2023-05-23T11:48:11.758Z,96717.94
2023-05-23T11:50:46.865Z,96712.00
2023-05-23T11:53:17.116Z,96706.03
2023-05-23T11:55:53.106Z,96700.44
2023-05-23T11:58:21.985Z,96702.78
2023-05-23T12:00:49.574Z,96704.72
2023-05-23T12:03:17.376Z,96709.25
2023-05-23T12:05:46.087Z,96714.41
2023-05-23T12:08:15.014Z,96709.50
2023-05-23T12:10:54.723Z,96707.56
2023-05-23T12:13:25.129Z,96710.25
2023-05-23T12:15:56.148Z,96698.75
2023-05-23T12:18:24.152Z,96698.56
2023-05-23T12:20:53.137Z,96705.50
2023-05-23T12:23:22.486Z,96692.19
2023-05-23T12:25:55.706Z,96714.94
2023-05-23T12:28:35.351Z,96713.28
2023-05-23T12:31:10.201Z,96722.34
2023-05-23T12:33:39.551Z,96705.47
2023-05-23T12:36:07.559Z,96721.88
2023-05-23T12:38:37.820Z,96726.22
2023-05-23T12:41:11.456Z,96731.19
2023-05-23T12:43:40.114Z,96727.44
2023-05-23T12:46:08.436Z,96715.09
2023-05-23T12:48:35.960Z,96724.47
2023-05-23T12:51:04.154Z,96721.53
2023-05-23T12:53:32.010Z,96726.88
2023-05-23T12:55:59.582Z,96728.81
2023-05-23T12:58:30.938Z,96736.13
2023-05-23T13:00:59.063Z,96723.03
2023-05-23T13:03:26.951Z,96736.25
2023-05-23T13:05:55.064Z,96731.44
2023-05-23T13:08:22.691Z,96742.66
2023-05-23T13:10:50.869Z,96737.31
2023-05-23T13:13:18.477Z,96740.16
2023-05-23T13:15:49.704Z,96752.69
2023-05-23T13:18:18.512Z,96761.19
2023-05-23T13:20:46.634Z,96744.44
2023-05-23T13:23:14.417Z,96756.38
2023-05-23T13:25:42.745Z,96753.63
2023-05-23T13:28:11.077Z,96754.53
2023-05-23T13:30:38.782Z,96756.16
2023-05-23T13:33:07.915Z,96747.91
2023-05-23T13:35:35.528Z,96759.78
2023-05-23T13:38:03.120Z,96759.34
2023-05-23T13:40:30.737Z,96769.56
2023-05-23T13:42:58.302Z,96774.66
2023-05-23T13:45:25.856Z,96774.19
2023-05-23T13:47:53.620Z,96777.84
2023-05-23T13:50:22.656Z,96776.47
2023-05-23T13:52:50.262Z,96777.81
2023-05-23T13:55:18.578Z,96773.22
2023-05-23T13:57:47.004Z,96751.38
2023-05-23T14:00:16.123Z,96774.84
2023-05-23T14:02:43.773Z,96786.34
2023-05-23T14:05:11.347Z,96777.53
2023-05-23T14:07:41.263Z,96779.53
2023-05-23T14:10:09.661Z,96786.69
2023-05-23T14:12:37.741Z,96781.28
2023-05-23T14:15:05.965Z,96780.09
2023-05-23T14:17:33.546Z,96764.44
2023-05-23T14:20:01.199Z,96785.75
2023-05-23T14:22:28.803Z,96775.34
2023-05-23T14:24:58.724Z,96751.84
2023-05-23T14:27:27.716Z,96772.44
2023-05-23T14:29:55.315Z,96770.00
2023-05-23T14:32:23.221Z,96755.50
2023-05-23T14:34:50.767Z,96784.38
2023-05-23T14:37:37.048Z,96789.63
2023-05-23T14:40:06.658Z,96786.34
2023-05-23T14:42:34.232Z,96791.44
2023-05-23T14:45:01.841Z,96801.06
2023-05-23T14:47:29.485Z,96789.41
2023-05-23T14:49:57.068Z,96793.03
2023-05-23T14:52:24.837Z,96792.47
2023-05-23T14:54:52.436Z,96777.72
2023-05-23T14:57:21.476Z,96801.66
2023-05-23T14:59:49.019Z,96801.72
2023-05-23T15:02:17.102Z,96794.25
2023-05-23T15:04:44.716Z,96795.09
2023-05-23T15:07:13.575Z,96803.16
2023-05-23T15:09:41.208Z,96795.81
2023-05-23T15:12:09.831Z,96789.97
2023-05-23T15:14:38.747Z,96796.09
2023-05-23T15:17:08.520Z,96791.59
2023-05-23T15:19:37.093Z,96765.34
2023-05-23T15:22:05.506Z,96778.63
2023-05-23T15:27:15.710Z,96789.72
2023-05-23T15:29:47.810Z,96784.81
2023-05-23T15:32:15.494Z,96788.31
2023-05-23T15:34:43.857Z,96769.97
2023-05-23T15:37:11.431Z,96781.88
2023-05-23T15:39:38.973Z,96787.84
2023-05-23T15:42:06.979Z,96796.19
2023-05-23T15:44:34.601Z,96801.84
2023-05-23T15:47:03.546Z,96769.50
2023-05-23T15:49:31.109Z,96795.78
2023-05-23T15:51:58.645Z,96795.69
2023-05-23T15:54:26.357Z,96789.16
2023-05-23T15:56:53.923Z,96804.81
2023-05-23T15:59:21.488Z,96806.47
2023-05-23T16:01:49.161Z,96795.59
2023-05-23T16:04:18.191Z,96810.63
2023-05-23T16:06:45.814Z,96815.25
2023-05-23T16:09:13.452Z,96819.69
2023-05-23T16:11:41.216Z,96822.69
2023-05-23T16:14:08.855Z,96817.19
2023-05-23T16:16:36.524Z,96806.66
2023-05-23T16:19:04.204Z,96825.06
2023-05-23T16:21:33.312Z,96809.16
2023-05-23T16:24:01.146Z,96818.91
2023-05-23T16:26:28.801Z,96818.78
2023-05-23T16:28:56.339Z,96817.78
2023-05-23T16:31:27.247Z,96818.22
2023-05-23T16:33:55.206Z,96791.09
2023-05-23T16:36:23.202Z,96811.66
2023-05-23T16:38:54.089Z,96825.19
2023-05-23T16:41:23.151Z,96823.44
2023-05-23T16:43:51.707Z,96832.25
2023-05-23T16:46:22.209Z,96836.22
2023-05-23T16:48:50.115Z,96825.84
2023-05-23T16:51:17.871Z,96832.94
2023-05-23T16:53:45.574Z,96833.91
2023-05-23T16:56:14.710Z,96829.59
2023-05-23T16:58:42.362Z,96837.63
2023-05-23T17:01:10.093Z,96832.38
2023-05-23T17:03:37.967Z,96829.22
2023-05-23T17:06:05.907Z,96840.16
2023-05-23T17:08:34.688Z,96831.34
2023-05-23T17:11:02.431Z,96842.97
2023-05-23T17:13:32.720Z,96820.88
2023-05-23T17:16:00.567Z,96831.72
2023-05-23T17:18:28.274Z,96850.91
2023-05-23T17:20:55.957Z,96821.88
2023-05-23T17:23:24.025Z,96845.75
2023-05-23T17:25:51.709Z,96851.94
2023-05-23T17:28:19.611Z,96847.75
2023-05-23T17:30:48.690Z,96830.09
2023-05-23T17:33:16.495Z,96856.84
2023-05-23T17:35:44.460Z,96863.13
2023-05-23T17:38:12.408Z,96868.25
2023-05-23T17:40:40.212Z,96870.47
2023-05-23T17:43:08.392Z,96865.19
2023-05-23T17:45:36.230Z,96848.44
2023-05-23T17:48:05.716Z,96877.88
2023-05-23T17:50:33.481Z,96875.16
2023-05-23T17:53:03.413Z,96878.72
2023-05-23T17:55:31.907Z,96864.78
2023-05-23T17:57:59.718Z,96879.19
2023-05-23T18:00:27.479Z,96848.44
2023-05-23T18:02:55.198Z,96854.72
2023-05-23T18:05:24.222Z,96874.00
2023-05-23T18:07:51.920Z,96874.66
2023-05-23T18:10:19.704Z,96852.59
2023-05-23T18:12:47.638Z,96875.75
2023-05-23T18:15:15.459Z,96885.25
2023-05-23T18:17:43.260Z,96876.13
2023-05-23T18:20:12.737Z,96895.03
2023-05-23T18:22:41.700Z,96896.91
2023-05-23T18:25:10.156Z,96895.13
2023-05-23T18:27:37.867Z,96893.13
2023-05-23T18:30:06.566Z,96887.84
2023-05-23T18:32:34.343Z,96902.78
2023-05-23T18:35:02.014Z,96902.78
2023-05-23T18:37:29.760Z,96885.25
2023-05-23T18:40:00.262Z,96906.31
2023-05-23T18:42:27.952Z,96908.91
2023-05-23T18:44:55.742Z,96906.25
2023-05-23T18:47:23.778Z,96911.19
2023-05-23T18:49:52.142Z,96903.25
2023-05-23T18:52:19.892Z,96914.34
2023-05-23T18:54:48.263Z,96922.44
2023-05-23T18:57:17.718Z,96927.66
2023-05-23T18:59:45.443Z,96933.63
2023-05-23T19:02:13.403Z,96934.34
2023-05-23T19:04:41.934Z,96941.91
2023-05-23T19:07:09.713Z,96936.59
2023-05-23T19:09:37.497Z,96946.03
2023-05-23T19:12:05.484Z,96948.13
2023-05-23T19:14:34.537Z,96952.56
2023-05-23T19:17:06.019Z,96945.78
2023-05-23T19:19:34.621Z,96955.41
2023-05-23T19:22:02.493Z,96953.34
2023-05-23T19:24:30.203Z,96965.03
2023-05-23T19:26:57.970Z,96969.19
2023-05-23T19:29:25.698Z,96955.31
2023-05-23T19:31:55.201Z,96971.25
2023-05-23T19:34:23.023Z,96978.66
2023-05-23T19:36:51.378Z,96983.81
2023-05-23T19:39:19.188Z,96990.59
2023-05-23T19:41:46.975Z,96995.59
2023-05-23T19:44:14.660Z,97001.72
2023-05-23T19:46:42.377Z,97002.38
2023-05-23T19:49:12.032Z,97012.41
2023-05-23T19:51:39.799Z,97017.53
2023-05-23T19:54:07.599Z,97019.78
2023-05-23T19:56:36.160Z,97022.28
2023-05-23T19:59:03.843Z,97019.63
2023-05-23T20:01:33.666Z,97031.56
2023-05-23T20:04:01.694Z,97022.78
2023-05-23T20:06:31.241Z,97035.50
2023-05-23T20:08:58.989Z,97032.25
2023-05-23T20:11:28.944Z,97040.66
2023-05-23T20:13:56.631Z,97033.28
2023-05-23T20:16:24.378Z,97043.75
2023-05-23T20:18:52.181Z,97047.03
2023-05-23T20:21:20.002Z,97050.09
2023-05-23T20:23:49.233Z,97048.09
2023-05-23T20:26:16.998Z,97049.13
2023-05-23T20:28:44.760Z,97048.91
2023-05-23T20:31:12.787Z,97050.16
2023-05-23T20:33:40.598Z,97056.28
2023-05-23T20:36:08.536Z,97057.72
2023-05-23T20:38:36.280Z,97048.75
2023-05-23T20:41:06.653Z,97073.09
2023-05-23T20:43:37.138Z,97066.13
2023-05-23T20:46:06.143Z,97077.59
2023-05-23T20:48:34.434Z,97070.84
2023-05-23T20:51:02.334Z,97074.75
2023-05-23T20:53:31.435Z,97045.47
2023-05-23T20:55:59.173Z,97080.69
2023-05-23T20:58:28.428Z,97077.19
2023-05-23T21:00:56.159Z,97087.44
2023-05-23T21:03:23.915Z,97061.84
2023-05-23T21:05:51.717Z,97080.69
2023-05-23T21:08:19.387Z,97084.38
2023-05-23T21:10:50.672Z,97083.75
2023-05-23T21:13:19.344Z,97097.47
2023-05-23T21:15:48.586Z,97087.88
2023-05-23T21:18:16.313Z,97093.38
2023-05-23T21:20:44.221Z,97074.34
2023-05-23T21:23:12.143Z,97087.47
2023-05-23T21:25:40.052Z,97082.13
2023-05-23T21:28:07.787Z,97084.16
2023-05-23T21:30:35.511Z,97086.59
2023-05-23T21:33:04.768Z,97089.88
2023-05-23T21:35:32.474Z,97089.47
2023-05-23T21:38:00.196Z,97074.09
2023-05-23T21:40:27.893Z,97095.59
2023-05-23T21:42:55.634Z,97083.09
2023-05-23T21:45:23.557Z,97100.50
2023-05-23T21:47:51.321Z,97101.72
2023-05-23T21:50:20.452Z,97102.53
2023-05-23T21:52:48.137Z,97106.00
2023-05-23T21:55:15.910Z,97107.06
2023-05-23T21:57:43.605Z,97102.13
2023-05-23T22:00:13.060Z,97102.53
2023-05-23T22:02:41.079Z,97107.25
2023-05-23T22:05:09.357Z,97106.63
2023-05-23T22:07:38.430Z,97102.50
2023-05-23T22:10:07.320Z,97103.31
2023-05-23T22:12:35.079Z,97103.97
2023-05-23T22:15:03.037Z,97102.94
2023-05-23T22:17:34.034Z,97093.53
2023-05-23T22:20:02.323Z,97098.63
2023-05-23T22:22:30.030Z,97100.47
2023-05-23T22:24:59.095Z,97097.41
2023-05-23T22:27:27.317Z,97101.47
2023-05-23T22:29:55.022Z,97103.75
2023-05-23T22:32:22.837Z,97100.88
2023-05-23T22:34:50.683Z,97105.16
2023-05-23T22:37:18.451Z,97108.66
2023-05-23T22:39:46.215Z,97072.59
2023-05-23T22:42:15.459Z,97100.00
2023-05-23T22:44:43.769Z,97110.25
2023-05-23T22:47:13.788Z,97106.38
2023-05-23T22:49:42.559Z,97095.53
2023-05-23T22:52:10.341Z,97102.47
2023-05-23T22:54:38.179Z,97102.25
2023-05-23T22:57:06.302Z,97099.78
2023-05-23T22:59:35.513Z,97097.34
2023-05-23T23:02:03.274Z,97100.19
2023-05-23T23:04:31.438Z,97086.09
2023-05-23T23:07:01.296Z,97092.44
2023-05-23T23:09:29.063Z,97094.25
2023-05-23T23:11:56.793Z,97089.75
2023-05-23T23:14:24.659Z,97089.53
2023-05-23T23:16:53.810Z,97095.91
2023-05-23T23:19:21.859Z,97100.16
2023-05-23T23:21:49.589Z,97101.00
2023-05-23T23:24:17.764Z,97101.19
2023-05-23T23:26:45.467Z,97105.47
2023-05-23T23:29:13.244Z,97092.81
2023-05-23T23:31:40.996Z,97093.59
2023-05-23T23:34:10.090Z,97094.81
2023-05-23T23:36:39.726Z,97086.00
2023-05-23T23:39:07.623Z,97092.16
2023-05-23T23:41:35.418Z,97104.81
2023-05-23T23:44:03.128Z,97100.47
2023-05-23T23:46:31.231Z,97097.97
2023-05-23T23:48:59.027Z,97095.31
2023-05-23T23:51:28.260Z,97104.84
2023-05-23T23:53:56.527Z,97098.03
2023-05-23T23:56:24.729Z,97097.56
2023-05-23T23:58:52.520Z,97096.47
